Cecilia B — 3FEB6 — position and weather

sailwx.info

Track history (hours):
 
Tides and Currents Weather Stations Pressure Air Temp Water Temp Dewpoint Dewpoint Depression Visibility Wind Speed Wind Dir Waves Ship Positions

Cecilia B

Last reported at 2017-Nov-17 01:46 UTC. Time now 2017-Nov-20 17:32 UTC.
Position N 36°16' E 014°56'.

Length 229 m; draft 10.7 m.

Type: Cargo ship. MMSI: 373352000.

Date/timePositionNaut miles runAvg speedWind from/ knotsBaromVisibWave heightAir tempDewpointWater temp
2017-Nov-17 01:46N 36°16' E 014°56'413.5
2017-Nov-17 01:29N 36°17' E 014°51'713.5
2017-Nov-17 01:00N 36°19' E 014°44'713.4
2017-Nov-17 00:30N 36°21' E 014°35'713.3
2017-Nov-17 00:00N 36°23' E 014°28'713.2
2017-Nov-16 23:30N 36°25' E 014°20'613.2
2017-Nov-16 23:00N 36°27' E 014°12'713.0
2017-Nov-16 22:30N 36°29' E 014°04'613.1
2017-Nov-16 22:00N 36°31' E 013°57'  
2017-Nov-12 02:14N 31°07' W 012°32'311.4
2017-Nov-12 01:59N 31°05' W 012°34'611.4
2017-Nov-12 01:30N 31°01' W 012°38'511.2
2017-Nov-12 01:00N 30°57' W 012°43'611.2
2017-Nov-12 00:30N 30°53' W 012°48'1111.1
2017-Nov-11 23:32N 30°46' W 012°57'111.2
2017-Nov-11 23:25N 30°45' W 012°58'511.4
2017-Nov-11 23:00N 30°42' W 013°02'3411.3
2017-Nov-11 20:00N 30°19' W 013°31'611.3
2017-Nov-11 19:30N 30°15' W 013°36'611.3
2017-Nov-11 19:00N 30°11' W 013°41'611.0
2017-Nov-11 18:30N 30°08' W 013°45'510.9
2017-Nov-11 18:00N 30°04' W 013°50'611.2
2017-Nov-11 17:30N 29°60' W 013°54'611.3
2017-Nov-11 17:00N 29°56' W 013°59'611.3
2017-Nov-11 16:30N 29°52' W 014°04'611.3
2017-Nov-11 16:00N 29°48' W 014°09'611.1
2017-Nov-11 15:30N 29°45' W 014°13'911.1
2017-Nov-11 14:42N 29°39' W 014°21'210.9
2017-Nov-11 14:30N 29°37' W 014°23'510.9
2017-Nov-11 14:00N 29°33' W 014°27'510.7
2017-Nov-11 13:30N 29°30' W 014°32'610.8
2017-Nov-11 13:00N 29°26' W 014°36'510.7
2017-Nov-11 12:30N 29°22' W 014°41'610.6
2017-Nov-11 11:59N 29°19' W 014°46'510.5
2017-Nov-11 11:30N 29°15' W 014°50'510.5
2017-Nov-11 11:00N 29°12' W 014°54'510.4
2017-Nov-11 10:30N 29°08' W 014°59'510.4
2017-Nov-11 10:00N 29°05' W 015°03'510.5
2017-Nov-11 09:30N 29°01' W 015°08'510.4
2017-Nov-11 09:00N 28°58' W 015°12'510.3
2017-Nov-11 08:30N 28°54' W 015°16'510.0
2017-Nov-11 08:00N 28°51' W 015°20'510.2
2017-Nov-11 07:30N 28°47' W 015°25'510.0
2017-Nov-11 07:00N 28°44' W 015°29'510.0
2017-Nov-11 06:30N 28°41' W 015°33'510.7
2017-Nov-11 06:00N 28°37' W 015°38'510.5
2017-Nov-11 05:30N 28°33' W 015°42'510.3
2017-Nov-11 05:00N 28°29' W 015°46'510.2
2017-Nov-11 04:30N 28°25' W 015°49'510.3
2017-Nov-11 04:00N 28°21' W 015°53'510.3
2017-Nov-11 03:30N 28°17' W 015°57'510.4
2017-Nov-11 03:00N 28°13' W 016°00'610.2
2017-Nov-11 02:28N 28°09' W 016°05'510.1
2017-Nov-11 02:00N 28°06' W 016°08'510.1
2017-Nov-11 01:30N 28°02' W 016°12'24 9.7
2017-Nov-10 22:59N 27°46' W 016°33'  
Track history (hours):
 
Tides and Currents Weather Stations Pressure Air Temp Water Temp Dewpoint Dewpoint Depression Visibility Wind Speed Wind Dir Waves Ship Positions

Cecilia B

Last reported at 2017-Nov-17 01:46 UTC. Time now 2017-Nov-20 17:32 UTC.
Position N 36°16' E 014°56'.

Length 229 m; draft 10.7 m.

Type: Cargo ship. MMSI: 373352000.

Date/timePositionNaut miles runAvg speedWind from/ knotsBaromVisibWave heightAir tempDewpointWater temp
2017-Nov-17 01:46N 36°16' E 014°56'413.5
2017-Nov-17 01:29N 36°17' E 014°51'713.5
2017-Nov-17 01:00N 36°19' E 014°44'713.4
2017-Nov-17 00:30N 36°21' E 014°35'713.3
2017-Nov-17 00:00N 36°23' E 014°28'713.2
2017-Nov-16 23:30N 36°25' E 014°20'613.2
2017-Nov-16 23:00N 36°27' E 014°12'713.0
2017-Nov-16 22:30N 36°29' E 014°04'613.1
2017-Nov-16 22:00N 36°31' E 013°57'  
2017-Nov-12 02:14N 31°07' W 012°32'311.4
2017-Nov-12 01:59N 31°05' W 012°34'611.4
2017-Nov-12 01:30N 31°01' W 012°38'511.2
2017-Nov-12 01:00N 30°57' W 012°43'611.2
2017-Nov-12 00:30N 30°53' W 012°48'1111.1
2017-Nov-11 23:32N 30°46' W 012°57'111.2
2017-Nov-11 23:25N 30°45' W 012°58'511.4
2017-Nov-11 23:00N 30°42' W 013°02'3411.3
2017-Nov-11 20:00N 30°19' W 013°31'611.3
2017-Nov-11 19:30N 30°15' W 013°36'611.3
2017-Nov-11 19:00N 30°11' W 013°41'611.0
2017-Nov-11 18:30N 30°08' W 013°45'510.9
2017-Nov-11 18:00N 30°04' W 013°50'611.2
2017-Nov-11 17:30N 29°60' W 013°54'611.3
2017-Nov-11 17:00N 29°56' W 013°59'611.3
2017-Nov-11 16:30N 29°52' W 014°04'611.3
2017-Nov-11 16:00N 29°48' W 014°09'611.1
2017-Nov-11 15:30N 29°45' W 014°13'911.1
2017-Nov-11 14:42N 29°39' W 014°21'210.9
2017-Nov-11 14:30N 29°37' W 014°23'510.9
2017-Nov-11 14:00N 29°33' W 014°27'510.7
2017-Nov-11 13:30N 29°30' W 014°32'610.8
2017-Nov-11 13:00N 29°26' W 014°36'510.7
2017-Nov-11 12:30N 29°22' W 014°41'610.6
2017-Nov-11 11:59N 29°19' W 014°46'510.5
2017-Nov-11 11:30N 29°15' W 014°50'510.5
2017-Nov-11 11:00N 29°12' W 014°54'510.4
2017-Nov-11 10:30N 29°08' W 014°59'510.4
2017-Nov-11 10:00N 29°05' W 015°03'510.5
2017-Nov-11 09:30N 29°01' W 015°08'510.4
2017-Nov-11 09:00N 28°58' W 015°12'510.3
2017-Nov-11 08:30N 28°54' W 015°16'510.0
2017-Nov-11 08:00N 28°51' W 015°20'510.2
2017-Nov-11 07:30N 28°47' W 015°25'510.0
2017-Nov-11 07:00N 28°44' W 015°29'510.0
2017-Nov-11 06:30N 28°41' W 015°33'510.7
2017-Nov-11 06:00N 28°37' W 015°38'510.5
2017-Nov-11 05:30N 28°33' W 015°42'510.3
2017-Nov-11 05:00N 28°29' W 015°46'510.2
2017-Nov-11 04:30N 28°25' W 015°49'510.3
2017-Nov-11 04:00N 28°21' W 015°53'510.3
2017-Nov-11 03:30N 28°17' W 015°57'510.4
2017-Nov-11 03:00N 28°13' W 016°00'610.2
2017-Nov-11 02:28N 28°09' W 016°05'510.1
2017-Nov-11 02:00N 28°06' W 016°08'510.1
2017-Nov-11 01:30N 28°02' W 016°12'24 9.7
2017-Nov-10 22:59N 27°46' W 016°33'  

Dump ship's entire track history